Domov
logo

Vyskúšajte rýchly a spoľahlivý webhosting

Aktuálne počasie

LZIB - letisko Bratislava

Hodnoty namerané: 19.08.2019, 09:30 SELČ
Aktuálny čas: 19.08.2019, 09:54 SELČ
Aktualizované: pred 24 min.
Teplota: 24°C
Rosný bod: 17°C
Vietor: 19 km/h 290° (ZSZ) kolíše v rozsahu 270°-330° (Z-SSZ)
Dohľadnosť: viac ako 10 km
Stav počasia: bez zrážok
Oblačnosť: malá oblačnosť na 884 m
Základňa oblačnosti: 884 m
Vlhkosť vzduchu: 65 %
Tlak vzduchu: 1015 hPa
METAR: LZIB 190730Z 29010KT 270V330 9999 FEW029 24/17 Q1015 NOSIG

LZKZ - letisko Košice

Hodnoty namerané: 19.08.2019, 09:30 SELČ
Aktuálny čas: 19.08.2019, 09:54 SELČ
Aktualizované: pred 24 min.
Teplota: 23°C
Rosný bod: 16°C
Vietor: premenlivý 4 km/h
Dohľadnosť: viac ako 10 km
Stav počasia: bez zrážok
Oblačnosť: jasno
Vlhkosť vzduchu: 65 %
Tlak vzduchu: 1018 hPa
METAR: LZKZ 190730Z VRB02KT CAVOK 23/16 Q1018 NOSIG

LZPP - letisko Piešťany

Hodnoty namerané: 19.08.2019, 09:30 SELČ
Aktuálny čas: 19.08.2019, 09:54 SELČ
Aktualizované: pred 24 min.
Teplota: 25°C
Rosný bod: 16°C
Vietor: 20 km/h 140° (JV)
Dohľadnosť: viac ako 10 km
Stav počasia: bez zrážok
Oblačnosť: jasno
Vlhkosť vzduchu: 57 %
Tlak vzduchu: 1015 hPa
METAR: LZPP 190730Z 14011KT CAVOK 25/16 Q1015

LZTT - letisko Poprad Tatry

Hodnoty namerané: 19.08.2019, 09:30 SELČ
Aktuálny čas: 19.08.2019, 09:54 SELČ
Aktualizované: pred 24 min.
Teplota: 22°C
Rosný bod: 15°C
Vietor: premenlivý 4 km/h
Dohľadnosť: viac ako 10 km
Stav počasia: bez zrážok
Oblačnosť: jasno
Vlhkosť vzduchu: 65 %
Tlak vzduchu: 1019 hPa
METAR: LZTT 190730Z VRB02KT CAVOK 22/15 Q1019 NOSIG

LZSL - letisko Sliač

Hodnoty namerané: 19.08.2019, 09:30 SELČ
Aktuálny čas: 19.08.2019, 09:54 SELČ
Aktualizované: pred 24 min.
Teplota: 22°C
Rosný bod: 16°C
Vietor: premenlivý 2 km/h
Dohľadnosť: viac ako 10 km
Stav počasia: bez zrážok
Oblačnosť: jasno
Vlhkosť vzduchu: 69 %
Tlak vzduchu: 1018 hPa
METAR: LZSL 190730Z VRB01KT CAVOK 22/16 Q1018

LZZI - letisko Žilina

Hodnoty namerané: 19.08.2019, 09:48 SELČ
Aktuálny čas: 19.08.2019, 09:54 SELČ
Aktualizované: pred 6 min.
Teplota: 24°C
Rosný bod: 17°C
Vietor: premenlivý 4 km/h
Dohľadnosť: viac ako 10 km
Stav počasia: bez zrážok
Oblačnosť: jasno
Vlhkosť vzduchu: 65 %
Tlak vzduchu: 1016 hPa
METAR: LZZI 190748Z VRB02KT CAVOK 24/17 Q1016

POZNÁMKY:

SEČ - stredoeurópsky čas (UTC+1hod.)

SELČ - stredoeurópsky letný čas (UTC+2hod.)

UTC - univerzálny svetový čas, GMT, ZULU

METAR - sú pravidelné kódované letecké meteorologické správy. Tie zostavujú a zverejňujú meteorologické stanice letísk v polhodinových/hodinových intervaloch. Na tejto stránke správy METAR zo slovenských letísk nájdete už v dekódovanej podobe.

hore